createdAt,value
2023-03-05T00:01:29.867Z,21.73
2023-03-05T00:04:31.532Z,19.67
2023-03-05T00:07:33.510Z,21.43
2023-03-05T00:10:35.100Z,19.88
2023-03-05T00:13:37.328Z,20.48
2023-03-05T00:16:39.644Z,20.90
2023-03-05T00:19:41.312Z,18.83
2023-03-05T00:22:42.973Z,16.90
2023-03-05T00:25:46.032Z,19.33
2023-03-05T00:28:50.020Z,17.83
2023-03-05T00:31:51.658Z,17.05
2023-03-05T00:34:53.364Z,20.95
2023-03-05T00:37:55.071Z,21.07
2023-03-05T00:40:56.809Z,20.10
2023-03-05T00:43:58.510Z,18.17
2023-03-05T00:47:00.249Z,19.88
2023-03-05T00:50:03.151Z,18.83
2023-03-05T00:53:04.787Z,20.17
2023-03-05T00:56:07.090Z,19.08
2023-03-05T00:59:08.867Z,18.80
2023-03-05T01:02:10.494Z,16.45
2023-03-05T01:05:13.686Z,18.67
2023-03-05T01:08:15.978Z,21.33
2023-03-05T01:11:17.616Z,17.30
2023-03-05T01:14:20.171Z,19.35
2023-03-05T01:17:21.765Z,18.63
2023-03-05T01:20:23.492Z,18.27
2023-03-05T01:23:25.252Z,15.10
2023-03-05T01:26:27.358Z,17.50
2023-03-05T01:29:29.033Z,17.70
2023-03-05T01:32:30.787Z,16.25
2023-03-05T01:35:32.522Z,14.65
2023-03-05T01:38:34.131Z,15.67
2023-03-05T01:41:35.855Z,19.80
2023-03-05T01:44:37.563Z,16.20
2023-03-05T01:47:39.943Z,15.40
2023-03-05T01:50:41.608Z,19.23
2023-03-05T01:53:43.373Z,17.83
2023-03-05T01:56:48.202Z,21.23
2023-03-05T01:59:55.506Z,16.52
2023-03-05T02:02:58.320Z,18.58
2023-03-05T02:05:59.962Z,16.50
2023-03-05T02:09:01.628Z,17.87
2023-03-05T02:12:03.327Z,16.33
2023-03-05T02:15:05.518Z,17.25
2023-03-05T02:18:08.576Z,17.15
2023-03-05T02:21:11.911Z,20.10
2023-03-05T02:24:19.846Z,17.20
2023-03-05T02:27:34.792Z,18.95
2023-03-05T02:30:37.426Z,18.08
2023-03-05T02:33:39.395Z,16.42
2023-03-05T02:36:41.305Z,18.02
2023-03-05T02:39:42.920Z,18.30
2023-03-05T02:42:44.574Z,17.33
2023-03-05T02:45:46.294Z,16.83
2023-03-05T02:48:47.981Z,17.52
2023-03-05T02:51:49.730Z,18.27
2023-03-05T02:54:52.660Z,19.07
2023-03-05T02:57:54.368Z,18.30
2023-03-05T03:00:56.205Z,18.08
2023-03-05T03:03:58.044Z,18.80
2023-03-05T03:06:59.702Z,17.55
2023-03-05T03:10:01.372Z,18.20
2023-03-05T03:13:03.363Z,19.63
2023-03-05T03:16:07.073Z,18.15
2023-03-05T03:19:08.949Z,17.63
2023-03-05T03:22:12.829Z,19.70
2023-03-05T03:25:18.258Z,17.53
2023-03-05T03:28:20.311Z,17.38
2023-03-05T03:31:22.037Z,16.40
2023-03-05T03:34:23.934Z,19.02
2023-03-05T03:37:25.709Z,17.20
2023-03-05T03:40:27.308Z,16.83
2023-03-05T03:43:28.924Z,15.77
2023-03-05T03:46:30.774Z,14.75
2023-03-05T03:49:32.414Z,16.80
2023-03-05T03:52:34.151Z,16.33
2023-03-05T03:55:35.789Z,14.90
2023-03-05T03:58:37.406Z,14.80
2023-03-05T04:01:39.082Z,16.85
2023-03-05T04:04:40.766Z,15.25
2023-03-05T04:07:42.366Z,17.38
2023-03-05T04:10:43.989Z,13.87
2023-03-05T04:13:47.071Z,15.93
2023-03-05T04:16:48.653Z,14.45
2023-03-05T04:19:50.291Z,15.95
2023-03-05T04:22:51.922Z,15.23
2023-03-05T04:25:53.606Z,15.00
2023-03-05T04:28:55.199Z,13.38
2023-03-05T04:31:56.980Z,14.32
2023-03-05T04:34:59.181Z,18.40
2023-03-05T04:38:01.040Z,15.65
2023-03-05T04:41:02.662Z,15.80
2023-03-05T04:44:04.566Z,16.55
2023-03-05T04:47:06.390Z,15.63
2023-03-05T04:50:09.064Z,14.35
2023-03-05T04:53:10.659Z,17.23
2023-03-05T04:56:12.232Z,14.80
2023-03-05T04:59:13.867Z,19.30
2023-03-05T05:02:15.580Z,16.77
2023-03-05T05:05:24.374Z,15.13
2023-03-05T05:08:27.011Z,16.25
2023-03-05T05:11:28.665Z,17.53
2023-03-05T05:14:30.264Z,19.13
2023-03-05T05:17:33.111Z,16.90
2023-03-05T05:20:34.777Z,17.10
2023-03-05T05:23:36.791Z,14.50
2023-03-05T05:26:38.482Z,15.67
2023-03-05T05:29:40.143Z,17.60
2023-03-05T05:32:41.823Z,14.55
2023-03-05T05:35:43.591Z,17.15
2023-03-05T05:38:45.917Z,17.02
2023-03-05T05:41:51.584Z,16.67
2023-03-05T05:44:55.475Z,16.85
2023-03-05T05:47:57.320Z,16.80
2023-03-05T05:50:59.141Z,19.40
2023-03-05T05:54:00.815Z,19.55
2023-03-05T05:57:02.546Z,17.93
2023-03-05T06:00:07.654Z,17.48
2023-03-05T06:03:09.270Z,14.93
2023-03-05T06:06:16.676Z,17.35
2023-03-05T06:09:18.376Z,18.98
2023-03-05T06:12:20.038Z,18.83
2023-03-05T06:15:24.686Z,18.90
2023-03-05T06:18:26.435Z,18.02
2023-03-05T06:21:28.622Z,18.10
2023-03-05T06:24:30.473Z,17.67
2023-03-05T06:27:32.214Z,17.63
2023-03-05T06:30:33.826Z,18.27
2023-03-05T06:33:35.585Z,16.88
2023-03-05T06:36:38.285Z,18.48
2023-03-05T06:39:39.887Z,19.48
2023-03-05T06:42:41.597Z,17.10
2023-03-05T06:45:43.411Z,18.52
2023-03-05T06:48:45.460Z,20.10
2023-03-05T06:51:47.553Z,19.10
2023-03-05T06:54:49.139Z,16.65
2023-03-05T06:57:50.830Z,18.43
2023-03-05T07:00:52.424Z,17.88
2023-03-05T07:03:55.555Z,19.63
2023-03-05T07:06:58.580Z,16.10
2023-03-05T07:10:00.526Z,16.65
2023-03-05T07:13:02.094Z,17.87
2023-03-05T07:16:14.371Z,21.65
2023-03-05T07:19:16.665Z,16.85
2023-03-05T07:22:18.424Z,16.33
2023-03-05T07:25:21.618Z,14.73
2023-03-05T07:28:23.467Z,20.77
2023-03-05T07:31:31.793Z,17.00
2023-03-05T07:34:33.401Z,18.10
2023-03-05T07:37:35.200Z,19.58
2023-03-05T07:40:36.778Z,19.20
2023-03-05T07:43:39.298Z,17.73
2023-03-05T07:46:41.838Z,17.38
2023-03-05T07:49:43.582Z,15.30
2023-03-05T07:52:45.216Z,15.70
2023-03-05T07:55:47.625Z,15.15
2023-03-05T07:58:49.225Z,16.57
2023-03-05T08:01:50.810Z,16.75
2023-03-05T08:04:52.422Z,15.30
2023-03-05T08:07:54.005Z,19.00
2023-03-05T08:10:55.613Z,19.77
2023-03-05T08:13:59.462Z,16.43
2023-03-05T08:17:01.167Z,17.10
2023-03-05T08:20:05.708Z,19.35
2023-03-05T08:23:07.375Z,18.00
2023-03-05T08:26:14.306Z,17.42
2023-03-05T08:29:15.909Z,17.43
2023-03-05T08:32:17.525Z,18.55
2023-03-05T08:35:19.239Z,20.20
2023-03-05T08:38:21.204Z,20.73
2023-03-05T08:41:22.987Z,18.95
2023-03-05T08:44:24.617Z,18.37
2023-03-05T08:47:27.441Z,18.27
2023-03-05T08:50:29.191Z,18.52
2023-03-05T08:53:30.886Z,17.73
2023-03-05T08:56:34.217Z,18.58
2023-03-05T08:59:35.850Z,16.67
2023-03-05T09:02:37.630Z,16.55
2023-03-05T09:05:39.327Z,16.77
2023-03-05T09:08:41.300Z,19.55
2023-03-05T09:11:43.005Z,16.63
2023-03-05T09:14:44.620Z,17.20
2023-03-05T09:17:46.278Z,17.10
2023-03-05T09:20:47.903Z,18.88
2023-03-05T09:23:49.784Z,16.15
2023-03-05T09:26:51.478Z,16.52
2023-03-05T09:29:53.333Z,17.87
2023-03-05T09:32:54.945Z,16.98
2023-03-05T09:35:56.690Z,16.38
2023-03-05T09:38:58.922Z,17.05
2023-03-05T09:42:15.686Z,16.08
2023-03-05T09:45:27.013Z,18.40
2023-03-05T09:48:52.193Z,18.00
2023-03-05T09:52:02.157Z,16.77
2023-03-05T09:55:05.146Z,18.15
2023-03-05T09:58:12.904Z,19.00
2023-03-05T10:01:19.193Z,18.97
2023-03-05T10:04:53.388Z,16.85
2023-03-05T10:07:59.894Z,17.23
2023-03-05T10:11:06.732Z,16.95
2023-03-05T10:14:14.343Z,18.13
2023-03-05T10:17:30.970Z,19.83
2023-03-05T10:20:41.815Z,16.67
2023-03-05T10:23:53.640Z,16.20
2023-03-05T10:27:00.542Z,17.15
2023-03-05T10:30:05.118Z,12.38
2023-03-05T10:33:09.808Z,17.67
2023-03-05T10:36:26.882Z,17.15
2023-03-05T10:39:50.381Z,15.57
2023-03-05T10:43:17.033Z,18.08
2023-03-05T10:46:22.498Z,19.13
2023-03-05T10:49:30.129Z,18.73
2023-03-05T10:52:46.719Z,16.13
2023-03-05T10:55:50.616Z,17.10
2023-03-05T10:58:52.896Z,23.13
2023-03-05T11:02:08.978Z,25.63
2023-03-05T11:05:39.385Z,22.40
2023-03-05T11:08:41.455Z,17.50
2023-03-05T11:11:44.152Z,15.43
2023-03-05T11:14:47.742Z,20.85
2023-03-05T11:18:06.611Z,15.13
2023-03-05T11:21:11.726Z,15.93
2023-03-05T11:24:19.230Z,15.52
2023-03-05T11:27:35.993Z,17.13
2023-03-05T11:30:37.779Z,17.42
2023-03-05T11:33:39.571Z,15.82
2023-03-05T11:36:42.819Z,16.53
2023-03-05T11:39:46.244Z,18.27
2023-03-05T11:42:56.073Z,17.23
2023-03-05T11:46:03.675Z,14.98
2023-03-05T11:49:06.543Z,16.27
2023-03-05T11:52:31.131Z,15.33
2023-03-05T11:55:48.768Z,16.40
2023-03-05T11:58:53.902Z,13.57
2023-03-05T12:01:57.525Z,16.50
2023-03-05T12:05:03.251Z,11.95
2023-03-05T12:08:06.178Z,15.37
2023-03-05T12:11:25.596Z,14.20
2023-03-05T12:14:36.881Z,13.20
2023-03-05T12:18:04.652Z,13.05
2023-03-05T12:21:17.038Z,11.35
2023-03-05T12:24:27.731Z,14.07
2023-03-05T12:27:35.573Z,12.43
2023-03-05T12:30:37.194Z,9.77
2023-03-05T12:33:40.046Z,11.15
2023-03-05T12:36:41.735Z,11.98
2023-03-05T12:39:50.912Z,12.90
2023-03-05T12:43:03.204Z,8.95
2023-03-05T12:46:29.384Z,12.65
2023-03-05T12:49:39.106Z,11.52
2023-03-05T12:52:45.515Z,8.82
2023-03-05T12:55:57.146Z,11.47
2023-03-05T12:59:01.904Z,11.85
2023-03-05T13:02:15.751Z,11.55
2023-03-05T13:05:38.290Z,14.88
2023-03-05T13:08:39.926Z,11.98
2023-03-05T13:11:43.082Z,12.73
2023-03-05T13:14:56.000Z,11.90
2023-03-05T13:18:03.309Z,11.98
2023-03-05T13:21:14.477Z,11.55
2023-03-05T13:24:19.117Z,12.65
2023-03-05T13:27:32.151Z,12.00
2023-03-05T13:30:34.875Z,11.10
2023-03-05T13:33:37.325Z,13.00
2023-03-05T13:36:40.140Z,11.55
2023-03-05T13:39:49.577Z,11.52
2023-03-05T13:42:53.395Z,14.17
2023-03-05T13:45:56.672Z,12.35
2023-03-05T13:49:18.031Z,14.23
2023-03-05T13:52:46.193Z,13.20
2023-03-05T13:55:49.263Z,12.20
2023-03-05T13:58:55.909Z,14.57
2023-03-05T14:02:05.953Z,14.45
2023-03-05T14:05:15.361Z,11.70
2023-03-05T14:08:25.847Z,13.25
2023-03-05T14:11:27.664Z,14.00
2023-03-05T14:14:30.898Z,13.20
2023-03-05T14:17:44.951Z,14.00
2023-03-05T14:21:05.582Z,12.48
2023-03-05T14:24:14.522Z,12.00
2023-03-05T14:27:21.075Z,10.82
2023-03-05T14:30:24.925Z,11.43
2023-03-05T14:33:31.905Z,11.50
2023-03-05T14:36:34.746Z,11.80
2023-03-05T14:39:51.098Z,13.77
2023-03-05T14:42:53.878Z,12.30
2023-03-05T14:45:55.522Z,11.93
2023-03-05T14:48:57.343Z,11.32
2023-03-05T14:51:58.962Z,12.73
2023-03-05T14:55:00.773Z,12.00
2023-03-05T14:58:18.448Z,10.35
2023-03-05T15:01:20.243Z,11.27
2023-03-05T15:04:21.968Z,12.27
2023-03-05T15:07:30.984Z,10.68
2023-03-05T15:10:32.637Z,10.80
2023-03-05T15:13:36.522Z,9.45
2023-03-05T15:16:42.125Z,9.63
2023-03-05T15:19:43.993Z,10.75
2023-03-05T15:22:45.761Z,8.25
2023-03-05T15:25:47.877Z,10.73
2023-03-05T15:28:50.911Z,11.23
2023-03-05T15:31:55.636Z,10.10
2023-03-05T15:34:57.451Z,9.98
2023-03-05T15:37:59.244Z,11.35
2023-03-05T15:41:01.896Z,11.60
2023-03-05T15:44:03.831Z,10.55
2023-03-05T15:47:05.860Z,11.50
2023-03-05T15:50:10.073Z,9.90
2023-03-05T15:53:13.457Z,10.88
2023-03-05T15:56:19.305Z,10.68
2023-03-05T15:59:21.045Z,10.43
2023-03-05T16:02:24.677Z,11.03
2023-03-05T16:05:26.446Z,12.15
2023-03-05T16:08:28.509Z,15.70
2023-03-05T16:11:32.987Z,9.23
2023-03-05T16:14:34.719Z,8.07
2023-03-05T16:17:36.861Z,9.07
2023-03-05T16:20:38.557Z,9.85
2023-03-05T16:23:40.242Z,8.70
2023-03-05T16:26:42.668Z,7.97
2023-03-05T16:29:44.344Z,10.13
2023-03-05T16:32:45.997Z,9.83
2023-03-05T16:35:48.014Z,9.05
2023-03-05T16:38:51.562Z,8.63
2023-03-05T16:41:53.507Z,8.77
2023-03-05T16:44:55.161Z,6.75
2023-03-05T16:47:56.769Z,7.00
2023-03-05T16:51:00.136Z,7.50
2023-03-05T16:54:01.961Z,10.65
2023-03-05T16:57:04.154Z,9.38
2023-03-05T17:00:06.802Z,10.32
2023-03-05T17:03:08.575Z,7.63
2023-03-05T17:06:13.401Z,6.15
2023-03-05T17:09:15.496Z,7.82
2023-03-05T17:12:17.157Z,8.10
2023-03-05T17:15:18.971Z,8.32
2023-03-05T17:18:20.582Z,6.73
2023-03-05T17:21:22.351Z,8.82
2023-03-05T17:24:24.195Z,10.05
2023-03-05T17:27:25.802Z,9.35
2023-03-05T17:30:28.262Z,8.43
2023-03-05T17:33:34.445Z,8.77
2023-03-05T17:36:36.381Z,9.23
2023-03-05T17:39:39.113Z,9.35
2023-03-05T17:42:40.801Z,9.20
2023-03-05T17:45:43.021Z,8.88
2023-03-05T17:48:44.925Z,8.40
2023-03-05T17:51:46.651Z,9.85
2023-03-05T17:54:50.361Z,8.75
2023-03-05T17:57:53.053Z,7.88
2023-03-05T18:00:54.674Z,8.90
2023-03-05T18:03:56.776Z,10.97
2023-03-05T18:06:58.599Z,9.90
2023-03-05T18:10:00.605Z,9.85
2023-03-05T18:13:02.572Z,8.55
2023-03-05T18:16:04.501Z,8.95
2023-03-05T18:19:06.130Z,7.33
2023-03-05T18:22:07.738Z,8.77
2023-03-05T18:25:11.137Z,8.65
2023-03-05T18:28:14.211Z,10.07
2023-03-05T18:31:16.032Z,9.32
2023-03-05T18:34:19.178Z,9.27
2023-03-05T18:37:20.850Z,9.82
2023-03-05T18:40:24.269Z,11.65
2023-03-05T18:43:26.347Z,10.48
2023-03-05T18:46:28.087Z,9.68
2023-03-05T18:49:30.548Z,7.87
2023-03-05T18:52:32.207Z,9.80
2023-03-05T18:55:34.113Z,8.32
2023-03-05T18:58:36.116Z,10.02
2023-03-05T19:01:37.922Z,7.93
2023-03-05T19:04:39.730Z,8.17
2023-03-05T19:07:44.035Z,8.05
2023-03-05T19:10:45.861Z,8.75
2023-03-05T19:13:51.377Z,7.90
2023-03-05T19:16:53.043Z,8.57
2023-03-05T19:19:57.988Z,8.30
2023-03-05T19:22:59.649Z,9.45
2023-03-05T19:26:02.598Z,8.75
2023-03-05T19:29:05.410Z,7.03
2023-03-05T19:32:20.744Z,7.50
2023-03-05T19:35:22.443Z,8.60
2023-03-05T19:38:24.268Z,8.30
2023-03-05T19:41:27.727Z,7.28
2023-03-05T19:44:30.346Z,7.63
2023-03-05T19:47:35.286Z,8.52
2023-03-05T19:50:36.967Z,7.43
2023-03-05T19:53:40.036Z,7.60
2023-03-05T19:56:43.087Z,7.53
2023-03-05T19:59:46.123Z,7.35
2023-03-05T20:02:48.723Z,8.45
2023-03-05T20:05:50.404Z,10.40
2023-03-05T20:08:52.110Z,10.85
2023-03-05T20:11:53.959Z,16.60
2023-03-05T20:14:55.680Z,13.23
2023-03-05T20:17:58.041Z,12.15
2023-03-05T20:21:01.948Z,10.47
2023-03-05T20:24:09.592Z,10.55
2023-03-05T20:27:11.448Z,9.20
2023-03-05T20:30:16.319Z,11.68
2023-03-05T20:33:17.912Z,8.95
2023-03-05T20:36:19.749Z,9.37
2023-03-05T20:39:21.460Z,11.00
2023-03-05T20:42:23.063Z,9.98
2023-03-05T20:45:24.746Z,10.98
2023-03-05T20:48:28.750Z,10.98
2023-03-05T20:51:35.053Z,10.67
2023-03-05T20:54:36.822Z,9.95
2023-03-05T20:57:39.243Z,8.65
2023-03-05T21:00:41.754Z,8.02
2023-03-05T21:03:43.433Z,8.20
2023-03-05T21:06:45.048Z,7.60
2023-03-05T21:09:46.703Z,6.40
2023-03-05T21:12:50.313Z,7.32
2023-03-05T21:15:52.283Z,8.70
2023-03-05T21:18:56.022Z,8.15
2023-03-05T21:21:57.838Z,8.50
2023-03-05T21:25:22.167Z,7.70
2023-03-05T21:28:24.191Z,7.88
2023-03-05T21:31:25.856Z,7.20
2023-03-05T21:34:27.521Z,12.30
2023-03-05T21:37:29.124Z,7.83
2023-03-05T21:40:32.060Z,7.22
2023-03-05T21:43:34.229Z,8.60
2023-03-05T21:46:37.440Z,8.43
2023-03-05T21:49:39.184Z,9.60
2023-03-05T21:52:40.888Z,11.47
2023-03-05T21:56:25.217Z,10.25
2023-03-05T21:59:27.056Z,10.55
2023-03-05T22:02:28.677Z,12.27
2023-03-05T22:05:30.456Z,10.18
2023-03-05T22:08:32.034Z,11.23
2023-03-05T22:11:33.916Z,14.20
2023-03-05T22:14:35.942Z,10.35
2023-03-05T22:17:37.527Z,13.82
2023-03-05T22:20:39.303Z,12.02
2023-03-05T22:23:40.942Z,11.47
2023-03-05T22:26:42.593Z,11.68
2023-03-05T22:29:44.254Z,10.40
2023-03-05T22:32:45.990Z,11.48
2023-03-05T22:35:47.796Z,11.60
2023-03-05T22:38:49.461Z,12.77
2023-03-05T22:41:51.036Z,12.52
2023-03-05T22:44:59.099Z,13.85
2023-03-05T22:48:00.843Z,13.10
2023-03-05T22:51:02.559Z,12.55
2023-03-05T22:54:04.357Z,13.53
2023-03-05T22:57:08.590Z,15.40
2023-03-05T23:00:16.323Z,15.68
2023-03-05T23:03:18.004Z,14.80
2023-03-05T23:06:19.687Z,14.60
2023-03-05T23:09:22.297Z,14.37
2023-03-05T23:12:25.535Z,13.77
2023-03-05T23:15:33.121Z,14.65
2023-03-05T23:18:34.896Z,14.90
2023-03-05T23:21:36.520Z,13.50
2023-03-05T23:24:38.941Z,14.10
2023-03-05T23:27:41.396Z,15.93
2023-03-05T23:30:43.247Z,15.88
2023-03-05T23:33:44.862Z,13.70
2023-03-05T23:36:46.476Z,12.55
2023-03-05T23:39:48.446Z,13.37
2023-03-05T23:42:50.420Z,12.43
2023-03-05T23:45:56.224Z,13.57
2023-03-05T23:48:57.884Z,13.77
2023-03-05T23:51:59.609Z,12.57
2023-03-05T23:55:01.325Z,13.10
2023-03-05T23:58:04.421Z,13.65
